Aérodrome :
LOGIN :

S'inscrire | Disclaimer

   EN    FR    IT 

 










Légende :    VFR   VFR Marginal   IFR   IFR Intensif   IFR Très Intensif
Visi : 
Plafond : 
>= 8 km
>= 3000ft
5 à 8 km
1000 à 3000 ft
1500m à 5 km
500 à 1000 ft
800 à 1500m
200 à 500 ft
< 800m
< 200 ft
Symboles :   Orages  Brouillard  Fortes neiges  Fortes précipitations  Vent > 20 kt
SIGMETs :   Divers  Orages  Givrage  Turbulence  Onde Orograph.  Cendres Volcan.







- Altitude de l'aérodrome : 16 ft
- Code IATA : SDR


LEXJ - Santander Cantabria

DERNIER METAR :
  • 221400Z 31015KT 280V010 7000 -RA SCT024 BKN039 09/05 Q1015

METARs EXPIRÉS :
  • 221330Z 32012G31KT 280V360 5000 RA SCT024 BKN042 10/06 Q1015
  • 221300Z 31012KT 280V340 9999 FEW025 BKN040 10/05 Q1015
  • 221230Z 32011KT 280V010 9999 FEW020 BKN035 10/06 Q1015
  • 221200Z 33013G25KT 280V020 9999 -RA FEW019 BKN034 10/07 Q1016
  • 221130Z 31013KT 280V350 9999 FEW020 SCT026 BKN038 10/07 Q1016
  • 221100Z 27012KT 9999 SCT018 BKN026 09/08 Q1015

TAF TAF LEXJ
Valide du 22 à 09h jusqu'au 23 à 09h UTC


220800Z 2209/2309 30012KT 9999 SCT020 BKN030 TX12/2309Z TN09/2209Z
TEMPO 2209/2309 31018G30KT
TEMPO 2209/2309 RA
TEMPO 2209/2309 3000 RA BKN014
TEMPO 2303/2309 32030G45KT
Pas de NOTAMs connus pour ce terrain.
1 SIGMET publié pour la FIR Madrid (LECM) :
 
Onde orographique forte
LECM SIGMET 3 VALID 221300/221700 LEVA
LECM MADRID FIR/UIR SEV MTW FCST N OF LINE N4240 W001 - N4230 E00010 FL060/360 STNR NC=



MET'MAP, la Météo Aéronautique d'un coup d'oeil ! - Copyright ORBIFLY Décembre 2007 - Disclaimer

ORBIFLY MET'MAP TEAM :

Programmation & Développement : Alexandra Zaïnal
Conception & Développement : Baudouin d'Aumeries
Co-Programmation & Développement : Marc-Olivier Méhu
Soutien technique & logistique : Manuel Goepfert

Contact : metmap@orbifly.com




SOURCES & CREDITS :

   NOAA